Tallula, Illinois
Current Conditions -  °F | °C
As of 8:52 PM on Friday 21 Nov 2014 (Local Time) from KSPI Reporting Station
Overcast Overcast  
Wind Chill: 28°   Ceiling: 2200
Heat Index: 38°   Visibility: 10mi
Dew Point: 20°   Wind: 20mph
Humidity: 48%   Direction: 160°SSE
Pressure: 30.23"   Gusts: 26mph
Location:  39.94°N, 89.94°W
Report Text: KSPI 220252Z 16017G23KT 10SM BKN022 BKN070 OVC095 03/M07 A3023 RMK AO2 RAB14E39 SLP245 P0000 60000 T00331067 58021
Loading
Personal Weather Stations






























Interactive Weather Map New forecast layout! Learn more

10-Day Weather Forecast

Advertisements
Track Severe Weather on mobile